Hauptseite
METAR-TAF:

METAR-TAF

Flughäfen :

Genf, Schweiz

Flughafen Genf

Breite: 46-15N, Länge: 006-08E, Höhe: 420 m

Beobachtung

Neuester Wetterbericht von vor 18 Minuten, um 21:50 UTC
Wind 9 kt aus Nord/Nordost
Temperatur 1°C
Luftfeuchtigkeit 64%
Luftdruck 1013 hPa
Sichtweite: 8000 m
Geschlossene Wolkendecke in der Höhe von 2000 ft

METAR: LSGG 242150Z 02009KT 8000 OVC020 01/M05 Q1013 NOSIG

Zeit: 23:08 (22:08 UTC)

Prognose

Neuester Wetterbericht von vor 1 Stunde und 43 Minuten, um 20:25 UTC
Gültige Prognose vom 24 um 21 UTC bis 26 um 03 UTC
Wind 10 kt aus Nord/Nordost
Sichtweite: 7000 m
Geschlossene Wolkendecke in der Höhe von 2000 ft
Übergehend zu
vom 24 um 23 UTC bis 25 um 02 UTC
Wind 20 kt aus Nordost, Böen bis zu 35 kt

TAF: LSGG 242025Z 2421/2603 03010KT 7000 OVC020 TX00/2515Z TNM02/2505Z BECMG 2423/2502 04020G35KT

Wetterbeobachtungen und Prognosen von mehr als 4000 Flughäfen (METAR und TAF Bericht).

Die verfügbaren Stationen werden durch gelbe und rote Markierungen auf der Karte dargestellt.

Führen Sie die Maus auf sie, um den Namen der Station zu sehen.

Darauf klicken, um die Beobachtung von Wetterbeobachtungen und Prognosen zu sehen.

Um die Karte zu ändern : klicken Sie auf den grünen Tasten mit einem schwarzen Kreuz Zum Vergrößern, auf den grünen Button mit einem Gedankenstrich zu verkleinern, oder auf die grünen Pfeile für benachbarte Karten.


METAR-TAF: